Time;durP1;ratioP1;P1;durP2;ratioP2;P2;SDS_P1;SDS_P2;PMS_P1;PMS_P2;Temp;Humidity;BMP_temperature;BMP_pressure;BME280_temperature;BME280_humidity;BME280_pressure;Samples;Min_cycle;Max_cycle;Signal;HPM_P1;HPM_P2
2023/12/10 00:01:15;;;;;;;14.30;9.30;;;4.70;1.00;;;;;;5071939;28;20501;-66
2023/12/10 00:03:41;;;;;;;11.43;9.37;;;4.60;1.00;;;;;;5072196;28;20907;-66
2023/12/10 00:06:07;;;;;;;12.40;9.60;;;4.60;1.00;;;;;;5064292;28;20469;-65
2023/12/10 00:08:33;;;;;;;12.93;9.67;;;4.60;1.00;;;;;;5051260;28;20729;-66
2023/12/10 00:10:58;;;;;;;11.40;10.00;;;4.70;1.00;;;;;;5051934;28;20545;-68
2023/12/10 00:13:24;;;;;;;11.27;10.13;;;4.70;1.00;;;;;;5052329;28;20715;-66
2023/12/10 00:15:51;;;;;;;14.47;9.67;;;4.70;1.00;;;;;;5071004;28;20260;-66
2023/12/10 00:18:16;;;;;;;12.73;8.90;;;4.60;1.00;;;;;;5073137;28;20184;-66
2023/12/10 00:20:43;;;;;;;23.50;11.20;;;4.60;1.00;;;;;;5073332;28;20400;-66
2023/12/10 00:23:11;;;;;;;11.00;9.87;;;4.60;1.00;;;;;;5042780;28;20176;-66
2023/12/10 00:25:42;;;;;;;9.40;8.60;;;4.70;1.00;;;;;;5032471;28;20426;-66
2023/12/10 00:28:07;;;;;;;12.00;8.83;;;4.70;1.00;;;;;;5059534;28;20459;-66
2023/12/10 00:30:33;;;;;;;10.60;8.10;;;4.70;1.00;;;;;;5070574;28;20513;-66
2023/12/10 00:32:59;;;;;;;10.90;9.40;;;4.60;1.00;;;;;;5061839;28;20203;-67
2023/12/10 00:35:24;;;;;;;14.20;10.10;;;4.60;1.00;;;;;;5068080;28;20213;-68
2023/12/10 00:37:50;;;;;;;11.80;8.50;;;4.60;1.00;;;;;;5055160;28;20591;-67
2023/12/10 00:40:16;;;;;;;13.87;9.60;;;4.50;1.00;;;;;;5032101;28;20185;-67
2023/12/10 00:42:43;;;;;;;10.33;8.30;;;4.60;1.00;;;;;;5033392;28;20178;-67
2023/12/10 00:45:09;;;;;;;10.70;8.47;;;4.60;1.00;;;;;;5031831;28;20420;-66
2023/12/10 00:47:36;;;;;;;8.60;7.80;;;4.60;1.00;;;;;;5032828;28;20428;-66
2023/12/10 00:50:03;;;;;;;10.70;8.87;;;4.50;1.00;;;;;;5032865;28;20831;-66
2023/12/10 00:52:29;;;;;;;9.90;7.43;;;4.50;1.00;;;;;;5032537;28;20390;-66
2023/12/10 00:54:54;;;;;;;9.40;7.83;;;4.50;1.00;;;;;;5032161;28;20752;-67
2023/12/10 00:57:20;;;;;;;8.50;7.57;;;4.50;1.00;;;;;;5032872;28;20267;-66
2023/12/10 00:59:45;;;;;;;12.50;8.13;;;4.50;1.00;;;;;;5033150;28;20644;-66
2023/12/10 01:02:11;;;;;;;7.80;7.20;;;4.50;1.00;;;;;;5068092;28;20169;-66
2023/12/10 01:04:37;;;;;;;9.80;8.67;;;4.50;1.00;;;;;;5071893;28;20683;-66
2023/12/10 01:07:03;;;;;;;8.50;7.67;;;4.50;1.00;;;;;;5072719;28;20194;-66
2023/12/10 01:09:29;;;;;;;7.97;7.27;;;4.50;1.00;;;;;;5069920;28;20282;-67
2023/12/10 01:11:55;;;;;;;9.17;6.93;;;4.50;1.00;;;;;;5072737;28;20193;-67
2023/12/10 01:14:20;;;;;;;7.83;7.03;;;4.50;1.00;;;;;;5072721;28;20898;-66
2023/12/10 01:16:48;;;;;;;10.90;6.90;;;4.40;1.00;;;;;;5071702;28;20390;-66
2023/12/10 01:19:14;;;;;;;9.73;7.00;;;4.40;1.00;;;;;;5073517;28;20172;-68
2023/12/10 01:21:40;;;;;;;8.47;7.57;;;4.50;1.00;;;;;;5076466;28;21039;-68
2023/12/10 01:24:06;;;;;;;14.10;6.60;;;4.50;1.00;;;;;;5076326;28;20178;-66
2023/12/10 01:26:31;;;;;;;9.13;7.33;;;4.50;1.00;;;;;;5075379;28;20174;-67
2023/12/10 01:28:57;;;;;;;7.93;7.10;;;4.50;1.00;;;;;;5072546;28;20435;-67
2023/12/10 01:31:23;;;;;;;7.23;6.53;;;4.50;1.00;;;;;;5075886;28;20199;-67
2023/12/10 01:33:48;;;;;;;8.67;7.93;;;4.50;1.00;;;;;;5075079;28;20175;-67
2023/12/10 01:36:23;;;;;;;8.33;6.50;;;4.40;1.00;;;;;;5075287;28;20176;-68
2023/12/10 01:38:50;;;;;;;7.47;6.80;;;4.50;1.00;;;;;;5075734;28;20269;-67
2023/12/10 01:41:16;;;;;;;6.90;6.30;;;4.40;1.00;;;;;;5075043;28;20487;-67
2023/12/10 01:43:43;;;;;;;9.47;7.00;;;4.40;1.00;;;;;;5076226;28;20395;-68
2023/12/10 01:46:08;;;;;;;8.03;7.20;;;4.40;1.00;;;;;;5073664;28;20413;-69
2023/12/10 01:48:35;;;;;;;8.27;6.43;;;4.40;1.00;;;;;;5075950;28;20449;-66
2023/12/10 01:51:01;;;;;;;14.60;12.30;;;4.40;1.00;;;;;;5075522;28;20208;-66
2023/12/10 01:53:27;;;;;;;8.90;7.27;;;4.40;1.00;;;;;;5075640;28;20494;-66
2023/12/10 01:55:52;;;;;;;8.30;7.50;;;4.40;1.00;;;;;;5067407;28;20441;-67
2023/12/10 01:58:18;;;;;;;9.23;7.30;;;4.40;1.00;;;;;;5076062;28;20193;-66
2023/12/10 02:00:44;;;;;;;7.50;6.80;;;4.40;1.00;;;;;;5074771;28;20177;-67
2023/12/10 02:03:10;;;;;;;9.27;8.27;;;4.40;1.00;;;;;;5056123;28;20169;-66
2023/12/10 02:05:36;;;;;;;12.03;10.43;;;4.40;1.00;;;;;;5054596;28;20440;-67
2023/12/10 02:08:02;;;;;;;8.50;7.60;;;4.40;1.00;;;;;;5055089;28;20826;-66
2023/12/10 02:10:28;;;;;;;8.93;7.80;;;4.40;1.00;;;;;;5055581;28;20555;-67
2023/12/10 02:12:54;;;;;;;10.30;8.00;;;4.40;1.00;;;;;;5055303;28;20790;-65
2023/12/10 02:15:21;;;;;;;9.17;7.07;;;4.40;1.00;;;;;;5054307;28;20459;-65
2023/12/10 02:17:48;;;;;;;26.80;16.87;;;4.50;1.00;;;;;;5065815;28;20538;-66
2023/12/10 02:20:15;;;;;;;9.60;6.80;;;4.50;1.00;;;;;;5061739;28;20401;-65
2023/12/10 02:23:04;;;;;;;8.50;7.67;;;4.50;1.00;;;;;;5044006;28;20428;-65
2023/12/10 02:25:38;;;;;;;13.70;9.60;;;4.50;1.00;;;;;;5071520;28;20446;-65
2023/12/10 02:28:05;;;;;;;9.07;7.40;;;4.50;1.00;;;;;;5075030;28;20420;-67
2023/12/10 02:30:32;;;;;;;8.10;7.20;;;4.50;1.00;;;;;;5073661;28;20510;-65
2023/12/10 02:32:58;;;;;;;7.83;7.03;;;4.50;1.00;;;;;;5067948;28;20423;-65
2023/12/10 02:35:24;;;;;;;12.10;7.63;;;4.50;1.00;;;;;;5074271;28;20452;-65
2023/12/10 02:37:50;;;;;;;11.77;7.50;;;4.50;1.00;;;;;;5066755;28;20818;-65
2023/12/10 02:40:19;;;;;;;8.00;7.20;;;4.50;1.00;;;;;;5055003;28;20171;-65
2023/12/10 02:42:45;;;;;;;10.70;6.90;;;4.50;1.00;;;;;;5054665;28;20405;-68
2023/12/10 02:45:12;;;;;;;6.90;6.20;;;4.50;1.00;;;;;;5053777;28;20393;-65
2023/12/10 02:47:37;;;;;;;8.13;7.13;;;4.40;1.00;;;;;;5055000;28;20432;-65
2023/12/10 02:50:03;;;;;;;6.40;5.80;;;4.50;1.00;;;;;;5054566;28;20455;-65
2023/12/10 02:52:29;;;;;;;7.10;6.40;;;4.40;1.00;;;;;;5053149;28;20189;-64
2023/12/10 02:54:55;;;;;;;7.83;7.10;;;4.50;1.00;;;;;;5073973;28;20421;-65
2023/12/10 02:57:21;;;;;;;7.10;6.50;;;4.40;1.00;;;;;;5074766;28;20239;-64
2023/12/10 02:59:47;;;;;;;9.17;7.30;;;4.40;1.00;;;;;;5074700;28;20285;-65
2023/12/10 03:02:13;;;;;;;7.20;6.20;;;4.40;1.00;;;;;;5071634;28;20934;-68
2023/12/10 03:04:39;;;;;;;6.90;6.30;;;4.40;1.00;;;;;;5073384;28;20171;-65
2023/12/10 03:07:04;;;;;;;6.83;6.13;;;4.50;1.00;;;;;;5074670;28;20429;-64
2023/12/10 03:09:30;;;;;;;6.57;5.60;;;4.50;1.00;;;;;;5074119;28;20162;-64
2023/12/10 03:11:56;;;;;;;7.07;6.33;;;4.40;1.00;;;;;;5074134;28;20273;-65
2023/12/10 03:14:22;;;;;;;7.33;6.57;;;4.40;1.00;;;;;;5068016;28;20417;-66
2023/12/10 03:16:47;;;;;;;8.23;6.10;;;4.50;1.00;;;;;;5052456;28;20654;-64
2023/12/10 03:19:13;;;;;;;7.17;5.63;;;4.50;1.00;;;;;;5062223;28;20642;-64
2023/12/10 03:21:39;;;;;;;6.70;6.10;;;4.50;1.00;;;;;;5073520;28;20171;-65
2023/12/10 03:24:04;;;;;;;7.03;6.43;;;4.50;1.00;;;;;;5074112;28;20189;-64
2023/12/10 03:26:30;;;;;;;7.43;6.70;;;4.50;1.00;;;;;;5072682;28;20626;-67
2023/12/10 03:28:56;;;;;;;6.40;5.80;;;4.50;1.00;;;;;;5054636;28;20272;-65
2023/12/10 03:31:22;;;;;;;6.17;5.57;;;4.50;1.00;;;;;;5053077;28;20243;-67
2023/12/10 03:33:50;;;;;;;6.50;5.70;;;4.60;1.00;;;;;;5072711;28;20168;-65
2023/12/10 03:36:16;;;;;;;5.73;5.30;;;4.60;1.00;;;;;;5073137;28;20162;-64
2023/12/10 03:38:41;;;;;;;7.80;5.60;;;4.50;1.00;;;;;;5073919;28;20754;-64
2023/12/10 03:41:07;;;;;;;5.97;5.53;;;4.50;1.00;;;;;;5072893;28;20398;-66
2023/12/10 03:43:33;;;;;;;6.37;5.77;;;4.50;1.00;;;;;;5072180;28;20182;-65
2023/12/10 03:45:58;;;;;;;6.40;5.90;;;4.50;1.00;;;;;;5073060;28;20179;-70
2023/12/10 03:48:24;;;;;;;7.33;6.17;;;4.60;1.00;;;;;;5071920;28;20224;-67
2023/12/10 03:50:51;;;;;;;5.80;5.30;;;4.60;1.00;;;;;;5072341;28;20566;-64
2023/12/10 03:53:17;;;;;;;5.77;5.27;;;4.60;1.00;;;;;;5073832;28;20166;-64
2023/12/10 03:55:43;;;;;;;7.17;6.60;;;4.60;1.00;;;;;;5072523;28;20889;-64
2023/12/10 03:58:08;;;;;;;5.90;5.43;;;4.70;1.00;;;;;;5068060;28;20535;-66
2023/12/10 04:00:34;;;;;;;7.23;6.53;;;4.60;1.00;;;;;;5068206;28;20706;-68
2023/12/10 04:03:00;;;;;;;6.27;5.73;;;4.70;1.00;;;;;;5066012;28;20285;-66
2023/12/10 04:05:25;;;;;;;6.77;6.10;;;4.70;1.00;;;;;;5052708;28;20175;-66
2023/12/10 04:07:51;;;;;;;7.60;6.90;;;4.70;1.00;;;;;;5073279;28;20193;-64
2023/12/10 04:10:17;;;;;;;6.80;6.20;;;4.70;1.00;;;;;;5073286;28;20194;-65
2023/12/10 04:12:42;;;;;;;7.57;6.00;;;4.80;1.00;;;;;;5072385;28;20528;-65
2023/12/10 04:15:08;;;;;;;9.37;6.87;;;4.80;1.00;;;;;;5069903;28;20248;-66
2023/12/10 04:17:34;;;;;;;7.33;6.73;;;4.80;1.00;;;;;;5073207;28;20196;-66
2023/12/10 04:20:00;;;;;;;8.00;6.67;;;4.80;1.00;;;;;;5073365;28;20404;-67
2023/12/10 04:22:27;;;;;;;7.77;6.97;;;4.90;1.00;;;;;;5064186;28;20512;-64
2023/12/10 04:24:53;;;;;;;7.33;6.73;;;4.80;1.00;;;;;;5072234;28;20213;-64
2023/12/10 04:27:19;;;;;;;9.67;7.07;;;4.90;1.00;;;;;;5073094;28;20558;-66
2023/12/10 04:29:44;;;;;;;7.17;6.50;;;4.80;1.00;;;;;;5067395;28;20258;-65
2023/12/10 04:32:11;;;;;;;8.27;7.47;;;4.90;1.00;;;;;;5073198;28;20158;-65
2023/12/10 04:34:36;;;;;;;8.17;6.83;;;4.90;1.00;;;;;;5071820;28;20165;-63
2023/12/10 04:37:02;;;;;;;8.30;7.50;;;5.00;1.00;;;;;;5072852;28;20458;-65
2023/12/10 04:39:28;;;;;;;12.70;7.90;;;4.90;1.00;;;;;;5072790;28;20235;-64
2023/12/10 04:41:54;;;;;;;8.27;7.07;;;5.00;1.00;;;;;;5073365;28;20844;-65
2023/12/10 04:44:20;;;;;;;11.13;7.83;;;5.00;1.00;;;;;;5067566;28;20175;-64
2023/12/10 04:46:45;;;;;;;9.43;8.37;;;5.00;1.00;;;;;;5051964;28;20495;-64
2023/12/10 04:49:11;;;;;;;8.73;7.20;;;5.00;1.00;;;;;;5053303;28;20205;-64
2023/12/10 04:51:37;;;;;;;13.73;6.90;;;5.00;1.00;;;;;;5072808;28;20194;-64
2023/12/10 04:54:02;;;;;;;8.40;7.57;;;5.10;1.00;;;;;;5075948;28;20186;-64
2023/12/10 04:56:29;;;;;;;9.83;8.07;;;5.10;1.00;;;;;;5074353;28;20170;-65
2023/12/10 04:58:55;;;;;;;8.40;7.60;;;5.10;1.00;;;;;;5066725;28;20478;-64
2023/12/10 05:01:20;;;;;;;10.00;8.60;;;5.10;1.00;;;;;;5056839;28;20405;-64
2023/12/10 05:03:46;;;;;;;12.30;9.63;;;5.10;1.00;;;;;;5056843;28;20178;-64
2023/12/10 05:06:12;;;;;;;11.17;8.70;;;5.10;1.00;;;;;;5054510;28;20166;-65
2023/12/10 05:08:37;;;;;;;13.13;6.60;;;5.10;1.00;;;;;;5056322;28;20277;-66
2023/12/10 05:11:03;;;;;;;11.50;7.60;;;5.10;1.00;;;;;;5056792;28;20197;-66
2023/12/10 05:13:30;;;;;;;16.60;9.50;;;5.20;1.00;;;;;;5056363;28;20433;-65
2023/12/10 05:15:57;;;;;;;11.37;8.30;;;5.20;1.00;;;;;;5055175;28;20413;-66
2023/12/10 05:18:23;;;;;;;9.97;8.20;;;5.20;1.00;;;;;;5071172;28;20448;-67
2023/12/10 05:20:48;;;;;;;11.27;8.47;;;5.30;1.00;;;;;;5075243;28;20408;-67
2023/12/10 05:23:14;;;;;;;19.30;9.20;;;5.30;1.00;;;;;;5074975;28;20485;-65
2023/12/10 05:25:40;;;;;;;11.23;8.60;;;5.30;1.00;;;;;;5075017;28;20190;-66
2023/12/10 05:28:06;;;;;;;13.40;7.80;;;5.30;1.00;;;;;;5075107;28;20220;-64
2023/12/10 05:30:31;;;;;;;14.83;8.77;;;5.30;1.00;;;;;;5071300;28;20651;-65
2023/12/10 05:32:57;;;;;;;19.57;8.60;;;5.40;1.00;;;;;;5055876;28;20524;-64
2023/12/10 05:35:23;;;;;;;11.73;9.30;;;5.40;1.00;;;;;;5055095;28;20163;-66
2023/12/10 05:37:49;;;;;;;14.90;8.63;;;5.40;1.00;;;;;;5056115;28;20789;-64
2023/12/10 05:40:15;;;;;;;14.97;10.43;;;5.40;1.00;;;;;;5056124;28;20413;-65
2023/12/10 05:42:41;;;;;;;10.90;8.90;;;5.40;1.00;;;;;;5055647;28;20220;-65
2023/12/10 05:45:07;;;;;;;16.50;9.33;;;5.30;1.00;;;;;;5059404;28;20415;-66
2023/12/10 05:47:33;;;;;;;18.13;10.30;;;5.30;1.00;;;;;;5075940;28;20662;-66
2023/12/10 05:49:59;;;;;;;19.57;11.33;;;5.40;1.00;;;;;;5075932;28;20489;-66
2023/12/10 05:52:24;;;;;;;15.27;8.77;;;5.40;1.00;;;;;;5074428;28;20436;-64
2023/12/10 05:54:51;;;;;;;14.63;7.87;;;5.40;1.00;;;;;;5075095;28;20177;-65
2023/12/10 05:57:17;;;;;;;16.83;9.77;;;5.40;1.00;;;;;;5055560;28;20199;-64
2023/12/10 05:59:43;;;;;;;21.20;9.70;;;5.40;1.00;;;;;;5055326;28;20400;-64
2023/12/10 06:02:09;;;;;;;17.67;10.13;;;5.40;1.00;;;;;;5054610;28;20425;-65
2023/12/10 06:04:34;;;;;;;16.37;9.87;;;5.40;1.00;;;;;;5054393;28;20471;-67
2023/12/10 06:07:00;;;;;;;14.60;9.50;;;5.30;1.00;;;;;;5054479;28;20191;-66
2023/12/10 06:09:26;;;;;;;13.73;9.27;;;5.30;1.00;;;;;;5055255;28;20254;-65
2023/12/10 06:11:53;;;;;;;19.67;10.20;;;5.30;1.00;;;;;;5055484;28;20227;-64
2023/12/10 06:14:19;;;;;;;17.60;9.17;;;5.20;1.00;;;;;;5054204;28;20233;-63
2023/12/10 06:16:45;;;;;;;14.13;9.73;;;5.20;1.00;;;;;;5039944;28;20422;-65
2023/12/10 06:19:11;;;;;;;19.13;9.27;;;5.20;1.00;;;;;;5034321;28;20417;-64
2023/12/10 06:21:37;;;;;;;17.87;9.67;;;5.20;1.00;;;;;;5035653;28;20171;-66
2023/12/10 06:24:04;;;;;;;13.70;9.60;;;5.20;1.00;;;;;;5048098;28;20520;-64
2023/12/10 06:26:30;;;;;;;18.17;10.73;;;5.30;1.00;;;;;;5074314;28;20878;-65
2023/12/10 06:28:56;;;;;;;16.63;9.40;;;5.30;1.00;;;;;;5074850;28;20484;-63
2023/12/10 06:31:22;;;;;;;17.80;9.97;;;5.40;1.00;;;;;;5075200;28;20448;-65
2023/12/10 06:33:47;;;;;;;21.67;10.60;;;5.40;1.00;;;;;;5072069;28;20249;-66
2023/12/10 06:36:13;;;;;;;17.40;10.00;;;5.40;1.00;;;;;;5074174;28;20549;-64
2023/12/10 06:38:39;;;;;;;22.33;11.00;;;5.50;1.00;;;;;;5075016;28;20183;-66
2023/12/10 06:41:06;;;;;;;16.67;9.50;;;5.50;1.00;;;;;;5073992;28;20561;-64
2023/12/10 06:43:31;;;;;;;20.77;11.63;;;5.50;1.00;;;;;;5067650;28;20221;-66
2023/12/10 06:46:00;;;;;;;16.57;10.47;;;5.50;1.00;;;;;;5053124;28;20409;-66
2023/12/10 06:48:26;;;;;;;19.00;9.50;;;5.50;1.00;;;;;;5053875;28;20522;-65
2023/12/10 06:50:53;;;;;;;26.03;9.13;;;5.50;1.00;;;;;;5054834;28;20989;-66
2023/12/10 06:53:18;;;;;;;18.30;9.63;;;5.60;1.00;;;;;;5054574;28;20181;-64
2023/12/10 06:55:44;;;;;;;24.03;10.53;;;5.60;1.00;;;;;;5053076;28;20425;-64
2023/12/10 06:58:10;;;;;;;14.67;9.63;;;5.60;1.00;;;;;;5065332;28;20252;-65
2023/12/10 07:00:36;;;;;;;18.80;9.23;;;5.60;1.00;;;;;;5066570;28;20922;-64
2023/12/10 07:03:02;;;;;;;15.10;9.00;;;5.60;1.00;;;;;;5054724;28;20539;-65
2023/12/10 07:05:28;;;;;;;15.40;9.23;;;5.70;1.00;;;;;;5053047;28;20189;-66
2023/12/10 07:07:54;;;;;;;17.27;9.97;;;5.70;1.00;;;;;;5054128;28;20426;-66
2023/12/10 07:10:19;;;;;;;17.57;9.40;;;5.70;1.00;;;;;;5054048;28;20191;-65
2023/12/10 07:12:45;;;;;;;10.83;8.13;;;5.80;1.00;;;;;;5050474;28;20184;-65
2023/12/10 07:15:11;;;;;;;12.50;7.23;;;5.80;1.00;;;;;;5042616;28;20179;-64
2023/12/10 07:17:37;;;;;;;15.63;8.53;;;5.80;1.00;;;;;;5050591;28;20198;-65
2023/12/10 07:20:03;;;;;;;21.03;7.70;;;5.90;1.00;;;;;;5053122;28;20616;-65
2023/12/10 07:22:28;;;;;;;19.33;9.10;;;5.90;1.00;;;;;;5052366;28;20424;-64
2023/12/10 07:24:54;;;;;;;21.00;8.53;;;5.90;1.00;;;;;;5065402;28;20444;-66
2023/12/10 07:27:20;;;;;;;19.27;9.27;;;5.90;1.00;;;;;;5053543;28;20226;-67
2023/12/10 07:29:45;;;;;;;17.57;8.20;;;5.90;1.00;;;;;;5058449;28;20232;-65
2023/12/10 07:32:11;;;;;;;18.87;8.40;;;6.00;1.00;;;;;;5073812;28;20654;-64
2023/12/10 07:34:37;;;;;;;24.67;8.77;;;6.00;1.00;;;;;;5055212;28;20174;-64
2023/12/10 07:37:03;;;;;;;16.87;7.27;;;6.00;1.00;;;;;;5052586;28;20198;-64
2023/12/10 07:39:29;;;;;;;15.27;8.07;;;6.00;1.00;;;;;;5053729;28;20163;-64
2023/12/10 07:41:55;;;;;;;20.97;7.50;;;6.10;1.00;;;;;;5054492;28;20420;-66
2023/12/10 07:44:21;;;;;;;17.23;7.67;;;6.10;1.00;;;;;;5066250;28;20225;-69
2023/12/10 07:46:46;;;;;;;14.33;6.90;;;6.10;1.00;;;;;;5057981;28;20569;-65
2023/12/10 07:49:12;;;;;;;22.33;7.90;;;6.10;1.00;;;;;;5059973;28;20437;-66
2023/12/10 07:51:38;;;;;;;11.10;7.00;;;6.10;1.00;;;;;;5049887;28;20194;-64
2023/12/10 07:54:03;;;;;;;15.80;7.03;;;6.20;1.00;;;;;;5060675;28;20175;-68
2023/12/10 07:56:30;;;;;;;13.53;6.43;;;6.20;1.00;;;;;;5051082;28;20674;-67
2023/12/10 07:58:56;;;;;;;16.90;7.30;;;6.20;1.00;;;;;;5066617;28;20551;-65
2023/12/10 08:01:22;;;;;;;24.20;6.40;;;6.20;1.00;;;;;;5052201;28;20485;-68
2023/12/10 08:03:47;;;;;;;13.57;5.57;;;6.20;1.00;;;;;;5064491;28;20186;-65
2023/12/10 08:06:13;;;;;;;19.80;6.60;;;6.20;1.00;;;;;;5058469;28;20647;-65
2023/12/10 08:08:39;;;;;;;10.30;5.70;;;6.20;1.00;;;;;;5053301;28;20255;-64
2023/12/10 08:11:05;;;;;;;16.00;5.90;;;6.20;1.00;;;;;;5058978;28;20206;-65
2023/12/10 08:13:31;;;;;;;23.17;6.70;;;6.20;1.00;;;;;;5057932;28;20726;-65
2023/12/10 08:15:57;;;;;;;21.03;6.63;;;6.30;1.00;;;;;;5052248;28;20393;-64
2023/12/10 08:18:24;;;;;;;14.80;5.83;;;6.30;1.00;;;;;;5053341;28;20802;-64
2023/12/10 08:20:50;;;;;;;20.60;6.37;;;6.30;1.00;;;;;;5053246;28;20400;-67
2023/12/10 08:23:15;;;;;;;22.50;6.03;;;6.40;1.00;;;;;;5051904;28;20762;-64
2023/12/10 08:25:41;;;;;;;14.27;6.20;;;6.40;1.00;;;;;;5048693;28;20500;-64
2023/12/10 08:28:07;;;;;;;12.43;5.60;;;6.40;1.00;;;;;;5033052;28;20191;-65
2023/12/10 08:30:33;;;;;;;18.27;6.37;;;6.40;1.00;;;;;;5033139;28;20198;-65
2023/12/10 08:32:59;;;;;;;8.13;5.30;;;6.40;1.00;;;;;;5032783;28;20820;-68
2023/12/10 08:35:25;;;;;;;16.60;6.27;;;6.40;1.00;;;;;;5032489;28;20550;-66
2023/12/10 08:37:51;;;;;;;17.37;5.53;;;6.40;1.00;;;;;;5033508;28;20869;-64
2023/12/10 08:40:17;;;;;;;9.70;4.90;;;6.40;1.00;;;;;;5032148;28;20509;-64
2023/12/10 08:42:42;;;;;;;15.30;6.43;;;6.50;1.00;;;;;;5039939;28;20171;-65
2023/12/10 08:45:09;;;;;;;16.23;7.90;;;6.50;1.00;;;;;;5052096;28;20222;-65
2023/12/10 08:47:35;;;;;;;16.50;5.80;;;6.50;1.00;;;;;;5053229;28;20195;-64
2023/12/10 08:50:02;;;;;;;12.60;5.67;;;6.60;1.00;;;;;;5052606;28;20415;-65
2023/12/10 08:52:28;;;;;;;10.30;5.87;;;6.60;1.00;;;;;;5053005;28;20408;-64
2023/12/10 08:54:54;;;;;;;11.93;6.53;;;6.60;1.00;;;;;;5052299;28;20883;-64
2023/12/10 08:57:21;;;;;;;18.30;7.13;;;6.60;1.00;;;;;;5053015;28;20183;-65
2023/12/10 08:59:47;;;;;;;18.83;6.53;;;6.60;1.00;;;;;;5052936;28;20485;-66
2023/12/10 09:02:13;;;;;;;12.53;5.63;;;6.70;1.00;;;;;;5052500;28;20504;-65
2023/12/10 09:04:39;;;;;;;19.70;6.40;;;6.70;1.00;;;;;;5051158;28;20221;-64
2023/12/10 09:07:04;;;;;;;13.67;5.57;;;6.80;1.00;;;;;;5050947;28;20222;-65
2023/12/10 09:09:32;;;;;;;10.47;5.17;;;6.80;1.00;;;;;;5051553;28;20179;-66
2023/12/10 09:11:59;;;;;;;11.27;5.77;;;6.80;1.00;;;;;;5051428;28;20548;-66
2023/12/10 09:14:24;;;;;;;12.20;5.77;;;6.80;1.00;;;;;;5052719;28;20404;-67
2023/12/10 09:16:51;;;;;;;9.70;5.80;;;6.90;1.00;;;;;;5052174;28;20425;-66
2023/12/10 09:19:17;;;;;;;8.70;5.30;;;6.90;1.00;;;;;;5052291;28;20884;-64
2023/12/10 09:21:43;;;;;;;10.50;5.57;;;6.90;1.00;;;;;;5052460;28;20533;-64
2023/12/10 09:24:09;;;;;;;6.33;4.50;;;6.90;1.00;;;;;;5052246;28;20180;-64
2023/12/10 09:26:35;;;;;;;9.80;4.67;;;6.90;1.00;;;;;;5051942;28;20410;-66
2023/12/10 09:29:02;;;;;;;10.47;4.27;;;6.90;1.00;;;;;;5052712;28;20393;-65
2023/12/10 09:31:28;;;;;;;12.67;5.10;;;6.90;1.00;;;;;;5052248;28;20656;-65
2023/12/10 09:33:54;;;;;;;12.13;4.93;;;7.00;1.00;;;;;;5052885;28;20405;-64
2023/12/10 09:36:20;;;;;;;8.93;4.93;;;6.90;1.00;;;;;;5051671;28;20441;-65
2023/12/10 09:38:45;;;;;;;14.70;5.63;;;7.00;1.00;;;;;;5052153;28;20611;-67
2023/12/10 09:41:11;;;;;;;8.50;5.10;;;7.00;1.00;;;;;;5054913;28;20195;-65
2023/12/10 09:43:37;;;;;;;9.10;5.60;;;7.00;1.00;;;;;;5055638;28;20527;-66
2023/12/10 09:46:03;;;;;;;10.37;6.70;;;7.00;1.00;;;;;;5055590;28;20171;-64
2023/12/10 09:48:30;;;;;;;15.13;6.40;;;7.00;1.00;;;;;;5056199;28;20229;-65
2023/12/10 09:50:56;;;;;;;13.63;6.97;;;7.10;1.00;;;;;;5055355;28;20931;-66
2023/12/10 09:53:22;;;;;;;9.50;7.37;;;7.10;1.00;;;;;;5054726;28;20426;-65
2023/12/10 09:55:51;;;;;;;12.30;7.20;;;7.20;1.00;;;;;;5055068;28;20178;-65
2023/12/10 09:58:16;;;;;;;6.43;5.70;;;7.10;1.00;;;;;;5055577;28;20244;-64
2023/12/10 10:00:42;;;;;;;10.73;5.97;;;7.20;1.00;;;;;;5055669;28;20507;-65
2023/12/10 10:03:08;;;;;;;12.07;7.27;;;7.20;1.00;;;;;;5054302;28;20585;-65
2023/12/10 10:05:34;;;;;;;7.63;5.47;;;7.20;1.00;;;;;;5055101;28;20693;-65
2023/12/10 10:07:59;;;;;;;12.40;7.30;;;7.20;1.00;;;;;;5055798;28;20322;-65
2023/12/10 10:10:25;;;;;;;17.17;6.23;;;7.20;1.00;;;;;;5054407;28;20544;-66
2023/12/10 10:12:56;;;;;;;6.90;5.70;;;7.20;1.00;;;;;;5056021;28;20173;-64
2023/12/10 10:15:29;;;;;;;8.87;5.73;;;7.20;1.00;;;;;;5053646;28;20687;-65
2023/12/10 10:17:55;;;;;;;10.30;6.40;;;7.30;1.00;;;;;;5045835;28;20893;-64
2023/12/10 10:20:23;;;;;;;7.63;5.80;;;7.30;1.00;;;;;;5034036;28;20787;-65
2023/12/10 10:22:49;;;;;;;11.27;6.03;;;7.30;1.00;;;;;;5035285;28;20404;-65
2023/12/10 10:25:15;;;;;;;12.67;6.67;;;7.30;1.00;;;;;;5034750;28;20459;-66
2023/12/10 10:27:41;;;;;;;11.90;6.30;;;7.30;1.00;;;;;;5033793;28;20462;-64
2023/12/10 10:30:07;;;;;;;12.40;6.30;;;7.30;1.00;;;;;;5034073;28;20437;-64
2023/12/10 10:32:33;;;;;;;12.57;5.57;;;7.30;1.00;;;;;;5035348;28;20163;-67
2023/12/10 10:35:03;;;;;;;14.70;5.80;;;7.30;1.00;;;;;;5048174;28;20422;-65
2023/12/10 10:37:28;;;;;;;11.50;4.90;;;7.30;1.00;;;;;;5053760;28;20767;-65
2023/12/10 10:39:55;;;;;;;6.23;5.47;;;7.40;1.00;;;;;;5054479;28;20398;-65
2023/12/10 10:42:21;;;;;;;14.93;6.20;;;7.40;1.00;;;;;;5054989;28;20173;-64
2023/12/10 10:44:46;;;;;;;12.73;5.80;;;7.40;1.00;;;;;;5052262;28;20438;-64
2023/12/10 10:47:13;;;;;;;7.20;5.63;;;7.40;1.00;;;;;;5054703;28;20440;-64
2023/12/10 10:49:57;;;;;;;9.23;5.70;;;7.40;1.00;;;;;;5054815;28;20929;-66
2023/12/10 10:52:25;;;;;;;15.03;5.60;;;7.40;1.00;;;;;;5054086;28;20453;-67
2023/12/10 10:54:54;;;;;;;13.63;6.23;;;7.40;1.00;;;;;;5052871;28;20422;-64
2023/12/10 10:57:30;;;;;;;15.73;6.63;;;7.40;1.00;;;;;;5054300;28;20426;-64
2023/12/10 10:59:56;;;;;;;6.53;5.77;;;7.40;1.00;;;;;;5054805;28;20750;-67
2023/12/10 11:02:22;;;;;;;12.30;7.07;;;7.40;1.00;;;;;;5053595;28;20472;-63
2023/12/10 11:04:50;;;;;;;15.53;8.00;;;7.50;1.00;;;;;;5052046;28;20532;-64
2023/12/10 11:07:18;;;;;;;9.33;6.00;;;7.50;1.00;;;;;;5054503;28;20955;-64
2023/12/10 11:09:58;;;;;;;9.33;5.30;;;7.60;1.00;;;;;;5054198;28;20438;-65
2023/12/10 11:12:51;;;;;;;10.53;7.07;;;7.60;1.00;;;;;;5054456;28;20798;-64
2023/12/10 11:15:17;;;;;;;9.87;6.80;;;7.60;1.00;;;;;;5065230;28;20440;-66
2023/12/10 11:17:53;;;;;;;8.43;6.30;;;7.60;1.00;;;;;;5071756;28;20427;-64
2023/12/10 11:20:37;;;;;;;14.13;7.20;;;7.60;1.00;;;;;;5074301;28;20241;-65
2023/12/10 11:23:15;;;;;;;18.60;6.83;;;7.60;1.00;;;;;;5074373;28;20589;-64
2023/12/10 11:25:41;;;;;;;10.90;7.10;;;7.60;1.00;;;;;;5073041;28;20540;-67
2023/12/10 11:28:14;;;;;;;12.60;7.63;;;7.60;1.00;;;;;;5062203;28;21118;-63
2023/12/10 11:30:41;;;;;;;7.53;5.83;;;7.60;1.00;;;;;;5074029;28;20474;-63
2023/12/10 11:33:07;;;;;;;11.57;6.73;;;7.70;1.00;;;;;;5074076;28;20415;-65
2023/12/10 11:35:33;;;;;;;11.13;6.30;;;7.70;1.00;;;;;;5072744;28;20403;-64
2023/12/10 11:37:59;;;;;;;13.57;8.17;;;7.70;1.00;;;;;;5058707;28;20462;-64
2023/12/10 11:40:25;;;;;;;15.03;7.50;;;7.70;1.00;;;;;;5056678;28;20443;-67
2023/12/10 11:42:51;;;;;;;10.07;7.70;;;7.70;1.00;;;;;;5071766;28;20213;-65
2023/12/10 11:45:17;;;;;;;16.50;9.53;;;7.70;1.00;;;;;;5072392;28;20531;-65
2023/12/10 11:47:43;;;;;;;16.10;9.73;;;7.70;1.00;;;;;;5051261;28;20195;-65
2023/12/10 11:50:10;;;;;;;11.80;7.83;;;7.70;1.00;;;;;;5070542;28;20433;-63
2023/12/10 11:52:36;;;;;;;15.33;8.80;;;7.80;1.00;;;;;;5073645;28;20455;-67
2023/12/10 11:55:03;;;;;;;14.70;8.20;;;7.80;1.00;;;;;;5063428;28;20407;-64
2023/12/10 11:57:29;;;;;;;11.40;7.97;;;7.80;1.00;;;;;;5065679;28;20453;-65
2023/12/10 11:59:56;;;;;;;15.60;7.93;;;7.80;1.00;;;;;;5057879;28;21003;-64
2023/12/10 12:02:23;;;;;;;12.03;7.50;;;7.90;1.00;;;;;;5052770;28;20257;-64
2023/12/10 12:04:52;;;;;;;11.30;7.63;;;7.90;1.00;;;;;;5052387;28;20549;-64
2023/12/10 12:07:28;;;;;;;14.33;8.10;;;8.00;1.00;;;;;;5053406;28;20475;-64
2023/12/10 12:09:54;;;;;;;8.60;7.80;;;8.00;1.00;;;;;;5053335;28;20894;-63
2023/12/10 12:12:24;;;;;;;15.20;6.20;;;8.00;1.00;;;;;;5052355;28;20971;-66
2023/12/10 12:14:51;;;;;;;8.23;7.43;;;8.10;1.00;;;;;;5050640;28;20421;-63
2023/12/10 12:17:19;;;;;;;18.03;7.83;;;8.20;1.00;;;;;;5036499;28;20849;-64
2023/12/10 12:19:45;;;;;;;9.60;7.30;;;8.30;1.00;;;;;;5049802;28;20446;-65
2023/12/10 12:22:11;;;;;;;10.27;6.60;;;8.30;1.00;;;;;;5052961;28;20408;-65
2023/12/10 12:24:40;;;;;;;11.43;7.53;;;8.40;1.00;;;;;;5052222;28;20428;-65
2023/12/10 12:27:10;;;;;;;9.67;6.60;;;8.40;1.00;;;;;;5053462;28;20432;-64
2023/12/10 12:29:36;;;;;;;14.40;8.53;;;8.40;1.00;;;;;;5073322;28;20457;-67
2023/12/10 12:32:03;;;;;;;16.50;9.57;;;8.40;1.00;;;;;;5072665;28;20454;-65
2023/12/10 12:34:29;;;;;;;19.90;10.83;;;8.40;1.00;;;;;;5072906;28;20373;-69
2023/12/10 12:36:56;;;;;;;19.53;11.30;;;8.40;1.00;;;;;;5071275;28;20847;-66
2023/12/10 12:39:22;;;;;;;19.40;12.30;;;8.40;1.00;;;;;;5051056;28;20438;-64
2023/12/10 12:41:48;;;;;;;16.90;10.07;;;8.40;1.00;;;;;;5050696;28;20443;-67
2023/12/10 12:44:14;;;;;;;7.33;6.30;;;8.40;1.00;;;;;;5071981;28;20412;-65
2023/12/10 12:46:43;;;;;;;15.93;7.57;;;8.40;1.00;;;;;;5072145;28;20898;-65
2023/12/10 12:49:10;;;;;;;10.83;6.97;;;8.30;1.00;;;;;;5069321;28;20963;-65
2023/12/10 12:51:37;;;;;;;10.03;8.03;;;8.30;1.00;;;;;;5071239;28;20438;-65
2023/12/10 12:54:04;;;;;;;16.07;9.10;;;8.30;1.00;;;;;;5073021;28;20892;-64
2023/12/10 12:56:30;;;;;;;10.93;8.20;;;8.30;1.00;;;;;;5072139;28;20404;-64